createdAt,value
2022-07-31T00:01:29.893Z,17.80
2022-07-31T00:04:02.735Z,17.69
2022-07-31T00:06:35.415Z,17.70
2022-07-31T00:09:52.291Z,17.68
2022-07-31T00:12:01.135Z,17.65
2022-07-31T00:14:34.016Z,17.61
2022-07-31T00:17:07.102Z,17.60
2022-07-31T00:19:39.894Z,17.61
2022-07-31T00:22:12.977Z,17.55
2022-07-31T00:24:45.658Z,17.53
2022-07-31T00:27:18.337Z,17.50
2022-07-31T00:29:51.295Z,17.47
2022-07-31T00:32:24.017Z,17.44
2022-07-31T00:34:59.854Z,17.39
2022-07-31T00:37:33.254Z,17.40
2022-07-31T00:40:13.535Z,17.40
2022-07-31T00:42:46.578Z,17.40
2022-07-31T00:45:19.296Z,17.36
2022-07-31T00:47:58.734Z,17.33
2022-07-31T00:50:31.775Z,17.30
2022-07-31T00:53:04.414Z,17.25
2022-07-31T00:55:50.999Z,17.21
2022-07-31T00:58:24.217Z,17.24
2022-07-31T01:01:00.573Z,17.20
2022-07-31T01:03:36.414Z,17.16
2022-07-31T01:06:10.335Z,17.15
2022-07-31T01:08:43.174Z,17.14
2022-07-31T01:11:19.735Z,17.12
2022-07-31T01:13:57.697Z,17.12
2022-07-31T01:16:33.934Z,17.12
2022-07-31T01:19:13.818Z,17.09
2022-07-31T01:21:56.293Z,17.07
2022-07-31T01:24:59.738Z,17.07
2022-07-31T01:27:53.975Z,17.02
2022-07-31T01:30:31.050Z,17.02
2022-07-31T01:33:08.855Z,17.00
2022-07-31T01:35:45.229Z,17.00
2022-07-31T01:38:23.256Z,17.05
2022-07-31T01:41:03.055Z,17.03
2022-07-31T01:43:39.535Z,17.04
2022-07-31T01:46:15.816Z,17.03
2022-07-31T01:48:51.474Z,17.01
2022-07-31T01:51:26.376Z,17.01
2022-07-31T01:54:02.177Z,17.00
2022-07-31T01:56:36.496Z,16.98
2022-07-31T01:59:12.348Z,16.96
2022-07-31T02:02:17.896Z,16.92
2022-07-31T02:04:52.135Z,16.93
2022-07-31T02:07:30.114Z,16.89
2022-07-31T02:10:06.334Z,16.89
2022-07-31T02:12:41.934Z,16.89
2022-07-31T02:15:16.856Z,16.88
2022-07-31T02:17:52.174Z,16.89
2022-07-31T02:20:26.185Z,16.86
2022-07-31T02:23:01.977Z,16.87
2022-07-31T02:25:37.176Z,16.85
2022-07-31T02:28:13.697Z,16.85
2022-07-31T02:30:49.295Z,16.84
2022-07-31T02:33:26.176Z,16.84
2022-07-31T02:36:00.378Z,16.84
2022-07-31T02:38:36.062Z,16.83
2022-07-31T02:41:11.744Z,16.82
2022-07-31T02:43:46.216Z,16.83
2022-07-31T02:46:26.978Z,16.82
2022-07-31T02:49:00.809Z,16.81
2022-07-31T02:51:42.510Z,16.79
2022-07-31T02:54:16.579Z,16.74
2022-07-31T02:56:52.056Z,16.75
2022-07-31T02:59:25.020Z,16.78
2022-07-31T03:02:05.194Z,16.76
2022-07-31T03:04:41.695Z,16.76
2022-07-31T03:07:17.816Z,16.76
2022-07-31T03:09:51.940Z,16.76
2022-07-31T03:12:53.974Z,16.76
2022-07-31T03:15:29.336Z,16.76
2022-07-31T03:18:08.457Z,16.78
2022-07-31T03:20:52.137Z,16.78
2022-07-31T03:23:27.426Z,16.77
2022-07-31T03:26:08.857Z,16.77
2022-07-31T03:28:43.460Z,16.77
2022-07-31T03:31:16.498Z,16.78
2022-07-31T03:33:50.056Z,16.78
2022-07-31T03:36:23.137Z,16.82
2022-07-31T03:38:56.176Z,16.82
2022-07-31T03:41:38.535Z,16.85
2022-07-31T03:44:10.497Z,16.87
2022-07-31T03:46:46.140Z,16.83
2022-07-31T03:49:20.045Z,16.84
2022-07-31T03:51:51.095Z,16.83
2022-07-31T03:54:24.296Z,16.79
2022-07-31T03:57:07.697Z,16.77
2022-07-31T03:59:48.020Z,16.77
2022-07-31T04:02:22.383Z,16.77
2022-07-31T04:05:00.337Z,16.76
2022-07-31T04:07:31.137Z,16.78
2022-07-31T04:10:04.458Z,16.73
2022-07-31T04:12:37.017Z,16.73
2022-07-31T04:15:11.415Z,16.73
2022-07-31T04:17:44.139Z,16.68
2022-07-31T04:20:17.096Z,16.67
2022-07-31T04:22:50.579Z,16.65
2022-07-31T04:25:43.817Z,16.63
2022-07-31T04:28:34.985Z,16.59
2022-07-31T04:31:08.577Z,16.55
2022-07-31T04:33:48.283Z,16.51
2022-07-31T04:36:30.622Z,16.49
2022-07-31T04:39:06.455Z,16.49
2022-07-31T04:41:40.256Z,16.47
2022-07-31T04:44:13.135Z,16.47
2022-07-31T04:47:07.937Z,16.43
2022-07-31T04:49:45.777Z,16.34
2022-07-31T04:52:22.901Z,16.34
2022-07-31T04:54:57.019Z,16.34
2022-07-31T04:57:30.418Z,16.37
2022-07-31T05:00:05.855Z,16.37
2022-07-31T05:02:39.097Z,16.36
2022-07-31T05:05:12.777Z,16.35
2022-07-31T05:07:48.016Z,16.36
2022-07-31T05:10:44.219Z,16.40
2022-07-31T05:13:18.016Z,16.41
2022-07-31T05:15:50.738Z,16.40
2022-07-31T05:18:23.457Z,16.38
2022-07-31T05:21:17.457Z,16.35
2022-07-31T05:24:33.181Z,16.34
2022-07-31T05:27:18.496Z,16.38
2022-07-31T05:29:55.097Z,16.36
2022-07-31T05:32:28.796Z,16.37
2022-07-31T05:35:01.778Z,16.38
2022-07-31T05:37:35.469Z,16.38
2022-07-31T05:40:11.495Z,16.36
2022-07-31T05:43:17.420Z,16.34
2022-07-31T05:46:10.216Z,16.31
2022-07-31T05:48:43.698Z,16.33
2022-07-31T05:51:17.377Z,16.30
2022-07-31T05:53:53.338Z,16.32
2022-07-31T05:56:44.701Z,16.26
2022-07-31T05:59:19.138Z,16.26
2022-07-31T06:01:50.399Z,16.25
2022-07-31T06:04:25.459Z,16.19
2022-07-31T06:06:58.137Z,16.21
2022-07-31T06:09:31.139Z,16.22
2022-07-31T06:12:04.108Z,16.23
2022-07-31T06:14:35.215Z,16.23
2022-07-31T06:17:44.109Z,16.18
2022-07-31T06:20:37.149Z,16.18
2022-07-31T06:23:14.556Z,16.21
2022-07-31T06:25:58.535Z,16.21
2022-07-31T06:28:32.897Z,16.21
2022-07-31T06:31:25.015Z,16.17
2022-07-31T06:34:02.627Z,16.19
2022-07-31T06:36:42.459Z,16.18
2022-07-31T06:39:21.554Z,16.15
2022-07-31T06:42:23.818Z,16.16
2022-07-31T06:45:18.398Z,16.17
2022-07-31T06:48:21.338Z,16.18
2022-07-31T06:51:21.114Z,16.20
2022-07-31T06:53:55.540Z,16.19
2022-07-31T06:56:28.618Z,16.23
2022-07-31T06:59:04.098Z,16.23
2022-07-31T07:01:39.342Z,16.21
2022-07-31T07:04:12.379Z,16.25
2022-07-31T07:06:44.938Z,16.24
2022-07-31T07:09:17.775Z,16.21
2022-07-31T07:11:54.499Z,16.20
2022-07-31T07:14:27.699Z,16.07
2022-07-31T07:17:07.303Z,16.12
2022-07-31T07:19:43.257Z,16.14
2022-07-31T07:22:16.336Z,16.19
2022-07-31T07:24:49.060Z,16.20
2022-07-31T07:27:27.217Z,16.21
2022-07-31T07:29:59.059Z,16.27
2022-07-31T07:32:31.617Z,16.26
2022-07-31T07:35:09.656Z,16.31
2022-07-31T07:37:59.266Z,16.32
2022-07-31T07:40:33.221Z,16.31
2022-07-31T07:43:07.583Z,16.29
2022-07-31T07:45:42.115Z,16.28
2022-07-31T07:48:14.778Z,16.29
2022-07-31T07:51:12.899Z,16.27
2022-07-31T07:53:59.499Z,16.18
2022-07-31T07:56:52.656Z,16.17
2022-07-31T07:59:38.736Z,16.10
2022-07-31T08:02:23.778Z,16.10
2022-07-31T08:04:57.859Z,16.12
2022-07-31T08:07:42.659Z,16.09
2022-07-31T08:10:34.936Z,16.06
2022-07-31T08:13:15.062Z,16.04
2022-07-31T08:16:07.301Z,16.00
2022-07-31T08:18:52.301Z,15.95
2022-07-31T08:21:25.420Z,16.00
2022-07-31T08:23:58.740Z,16.00
2022-07-31T08:26:51.457Z,16.00
2022-07-31T08:29:28.719Z,15.96
2022-07-31T08:32:13.539Z,16.06
2022-07-31T08:35:13.417Z,16.08
2022-07-31T08:37:59.304Z,16.11
2022-07-31T08:40:43.855Z,16.13
2022-07-31T08:46:11.139Z,16.18
2022-07-31T08:48:47.026Z,16.18
2022-07-31T08:51:24.816Z,16.20
2022-07-31T08:54:04.619Z,16.19
2022-07-31T08:56:39.419Z,16.28
2022-07-31T08:59:17.979Z,16.33
2022-07-31T09:01:57.336Z,16.33
2022-07-31T09:04:32.915Z,16.33
2022-07-31T09:07:06.514Z,16.33
2022-07-31T09:09:51.312Z,16.32
2022-07-31T09:12:35.116Z,16.21
2022-07-31T09:15:26.867Z,16.22
2022-07-31T09:18:00.139Z,16.21
2022-07-31T09:20:32.177Z,16.24
2022-07-31T09:23:12.058Z,16.18
2022-07-31T09:25:57.257Z,16.17
2022-07-31T09:28:37.659Z,16.21
2022-07-31T09:31:12.261Z,16.18
2022-07-31T09:34:05.178Z,16.21
2022-07-31T09:36:46.974Z,16.22
2022-07-31T09:39:52.587Z,16.21
2022-07-31T09:42:48.528Z,16.18
2022-07-31T09:45:30.859Z,16.15
2022-07-31T09:48:17.117Z,16.15
2022-07-31T09:51:01.423Z,16.13
2022-07-31T09:53:46.058Z,16.12
2022-07-31T09:56:39.712Z,16.06
2022-07-31T09:59:13.746Z,16.09
2022-07-31T10:01:49.169Z,16.12
2022-07-31T10:04:24.339Z,16.12
2022-07-31T10:06:58.418Z,16.09
2022-07-31T10:09:34.429Z,16.13
2022-07-31T10:12:24.459Z,16.15
2022-07-31T10:14:58.816Z,16.14
2022-07-31T10:17:36.254Z,16.18
2022-07-31T10:20:44.750Z,16.20
2022-07-31T10:23:41.027Z,16.22
2022-07-31T10:26:19.735Z,16.29
2022-07-31T10:28:56.307Z,16.31
2022-07-31T10:31:31.581Z,16.35
2022-07-31T10:34:06.697Z,16.40
2022-07-31T10:37:01.463Z,16.41
2022-07-31T10:40:05.767Z,16.45
2022-07-31T10:42:49.826Z,16.44
2022-07-31T10:45:26.935Z,16.46
2022-07-31T10:48:27.297Z,16.46
2022-07-31T10:51:14.312Z,16.49
2022-07-31T10:54:07.737Z,16.56
2022-07-31T10:57:25.063Z,16.62
2022-07-31T11:00:19.109Z,16.68
2022-07-31T11:03:19.977Z,16.73
2022-07-31T11:06:11.819Z,16.79
2022-07-31T11:08:59.297Z,16.87
2022-07-31T11:11:50.497Z,17.01
2022-07-31T11:14:47.218Z,17.03
2022-07-31T11:18:23.520Z,17.12
2022-07-31T11:20:38.658Z,17.18
2022-07-31T11:23:15.496Z,17.25
2022-07-31T11:25:50.419Z,17.28
2022-07-31T11:28:25.137Z,17.33
2022-07-31T11:31:00.935Z,17.41
2022-07-31T11:33:41.643Z,17.49
2022-07-31T11:36:18.228Z,17.55
2022-07-31T11:38:53.071Z,17.45
2022-07-31T11:41:39.787Z,17.50
2022-07-31T11:44:21.901Z,17.46
2022-07-31T11:46:58.990Z,17.43
2022-07-31T11:49:47.943Z,17.35
2022-07-31T11:52:30.664Z,17.29
2022-07-31T11:55:12.978Z,17.26
2022-07-31T11:57:52.357Z,17.27
2022-07-31T12:00:29.657Z,17.21
2022-07-31T12:03:06.097Z,17.14
2022-07-31T12:05:45.059Z,17.04
2022-07-31T12:08:19.818Z,16.96
2022-07-31T12:10:53.578Z,16.91
2022-07-31T12:13:27.777Z,16.83
2022-07-31T12:16:06.378Z,16.86
2022-07-31T12:18:52.739Z,16.86
2022-07-31T12:21:34.937Z,16.84
2022-07-31T12:24:14.818Z,16.85
2022-07-31T12:26:59.776Z,16.86
2022-07-31T12:29:37.497Z,16.83
2022-07-31T12:32:10.979Z,16.80
2022-07-31T12:34:45.937Z,16.81
2022-07-31T12:37:22.220Z,16.84
2022-07-31T12:40:01.433Z,16.85
2022-07-31T12:42:41.787Z,16.84
2022-07-31T12:45:20.160Z,16.79
2022-07-31T12:47:57.553Z,16.78
2022-07-31T12:50:31.937Z,16.75
2022-07-31T12:53:06.584Z,16.70
2022-07-31T12:55:39.978Z,16.67
2022-07-31T12:58:13.506Z,16.68
2022-07-31T13:00:46.338Z,16.67
2022-07-31T13:03:19.515Z,16.65
2022-07-31T13:05:52.284Z,16.63
2022-07-31T13:08:24.939Z,16.53
2022-07-31T13:10:58.257Z,16.52
2022-07-31T13:13:31.776Z,16.49
2022-07-31T13:16:06.549Z,16.42
2022-07-31T13:18:39.537Z,16.39
2022-07-31T13:21:14.457Z,16.32
2022-07-31T13:23:47.297Z,16.24
2022-07-31T13:26:18.539Z,16.22
2022-07-31T13:28:51.656Z,16.16
2022-07-31T13:31:26.503Z,16.17
2022-07-31T13:33:59.539Z,16.09
2022-07-31T13:36:38.754Z,16.09
2022-07-31T13:39:12.815Z,16.00
2022-07-31T13:41:47.674Z,15.99
2022-07-31T13:44:22.077Z,15.95
2022-07-31T13:46:54.780Z,15.92
2022-07-31T13:49:32.573Z,15.92
2022-07-31T13:52:05.796Z,15.91
2022-07-31T13:54:36.967Z,15.94
2022-07-31T13:57:09.736Z,15.94
2022-07-31T13:59:42.942Z,15.97
2022-07-31T14:02:15.968Z,16.00
2022-07-31T14:04:48.978Z,16.01
2022-07-31T14:07:20.297Z,15.97
2022-07-31T14:09:55.769Z,15.95
2022-07-31T14:12:32.257Z,16.00
2022-07-31T14:15:07.616Z,15.99
2022-07-31T14:17:41.939Z,16.02
2022-07-31T14:20:16.057Z,16.01
2022-07-31T14:22:48.777Z,16.02
2022-07-31T14:25:21.865Z,15.96
2022-07-31T14:27:54.535Z,15.92
2022-07-31T14:30:28.297Z,15.89
2022-07-31T14:33:03.105Z,15.97
2022-07-31T14:35:36.617Z,15.97
2022-07-31T14:38:12.856Z,15.92
2022-07-31T14:40:45.858Z,15.93
2022-07-31T14:43:18.977Z,15.96
2022-07-31T14:45:54.257Z,15.97
2022-07-31T14:48:27.735Z,15.97
2022-07-31T14:51:01.061Z,15.95
2022-07-31T14:53:34.458Z,16.00
2022-07-31T14:56:08.854Z,15.93
2022-07-31T14:58:58.363Z,15.95
2022-07-31T15:01:33.056Z,15.94
2022-07-31T15:04:11.615Z,15.94
2022-07-31T15:06:56.230Z,15.94
2022-07-31T15:09:38.779Z,15.97
2022-07-31T15:12:17.159Z,15.97
2022-07-31T15:14:51.415Z,15.96
2022-07-31T15:17:25.319Z,15.90
2022-07-31T15:19:58.260Z,15.89
2022-07-31T15:22:31.815Z,15.94
2022-07-31T15:25:04.619Z,15.92
2022-07-31T15:27:37.739Z,15.96
2022-07-31T15:30:12.975Z,15.91
2022-07-31T15:32:45.858Z,15.92
2022-07-31T15:35:18.637Z,15.96
2022-07-31T15:37:51.858Z,15.96
2022-07-31T15:40:24.998Z,15.95
2022-07-31T15:42:58.793Z,15.93
2022-07-31T15:45:31.268Z,15.93
2022-07-31T15:48:08.300Z,15.90
2022-07-31T15:50:44.340Z,15.91
2022-07-31T15:53:17.180Z,15.91
2022-07-31T15:55:50.863Z,15.92
2022-07-31T15:58:24.418Z,15.96
2022-07-31T16:01:01.878Z,15.96
2022-07-31T16:03:50.655Z,15.98
2022-07-31T16:06:32.236Z,15.97
2022-07-31T16:09:05.820Z,15.96
2022-07-31T16:12:04.511Z,15.95
2022-07-31T16:14:35.379Z,15.97
2022-07-31T16:17:08.250Z,16.00
2022-07-31T16:19:41.341Z,16.02
2022-07-31T16:22:14.181Z,16.03
2022-07-31T16:24:48.619Z,16.04
2022-07-31T16:27:21.541Z,16.00
2022-07-31T16:30:00.997Z,15.99
2022-07-31T16:32:37.615Z,15.99
2022-07-31T16:35:12.659Z,16.01
2022-07-31T16:37:51.327Z,16.02
2022-07-31T16:40:30.942Z,16.03
2022-07-31T16:43:47.872Z,16.00
2022-07-31T16:46:00.817Z,16.01
2022-07-31T16:48:34.057Z,16.01
2022-07-31T16:51:08.581Z,16.01
2022-07-31T16:54:14.352Z,16.00
2022-07-31T16:56:37.866Z,16.02
2022-07-31T16:59:10.541Z,16.06
2022-07-31T17:01:53.880Z,16.04
2022-07-31T17:04:35.417Z,16.05
2022-07-31T17:07:10.458Z,16.03
2022-07-31T17:09:43.057Z,16.00
2022-07-31T17:12:18.316Z,15.97
2022-07-31T17:14:51.230Z,15.95
2022-07-31T17:17:24.378Z,15.93
2022-07-31T17:19:59.354Z,15.86
2022-07-31T17:22:35.029Z,15.86
2022-07-31T17:25:08.579Z,15.86
2022-07-31T17:27:42.740Z,15.83
2022-07-31T17:30:18.228Z,15.86
2022-07-31T17:32:51.379Z,15.86
2022-07-31T17:35:25.024Z,15.88
2022-07-31T17:37:57.577Z,15.90
2022-07-31T17:40:43.458Z,15.91
2022-07-31T17:43:27.804Z,15.92
2022-07-31T17:46:17.547Z,15.93
2022-07-31T17:48:57.484Z,15.93
2022-07-31T17:51:33.194Z,15.91
2022-07-31T17:54:10.937Z,15.88
2022-07-31T17:56:45.147Z,15.87
2022-07-31T17:59:25.036Z,15.86
2022-07-31T18:02:00.622Z,15.88
2022-07-31T18:04:38.579Z,15.89
2022-07-31T18:07:13.142Z,15.88
2022-07-31T18:09:45.898Z,15.88
2022-07-31T18:12:18.411Z,15.85
2022-07-31T18:14:50.858Z,15.86
2022-07-31T18:17:23.639Z,15.88
2022-07-31T18:19:56.301Z,15.86
2022-07-31T18:22:34.867Z,15.87
2022-07-31T18:25:22.345Z,15.86
2022-07-31T18:27:58.545Z,15.87
2022-07-31T18:30:33.743Z,15.90
2022-07-31T18:33:08.736Z,15.89
2022-07-31T18:35:42.997Z,15.90
2022-07-31T18:38:15.857Z,15.87
2022-07-31T18:40:48.536Z,15.84
2022-07-31T18:43:21.227Z,15.77
2022-07-31T18:45:53.662Z,15.72
2022-07-31T18:48:28.177Z,15.68
2022-07-31T18:51:04.986Z,15.67
2022-07-31T18:53:38.021Z,15.67
2022-07-31T18:56:12.536Z,15.66
2022-07-31T18:58:46.224Z,15.62
2022-07-31T19:01:20.645Z,15.56
2022-07-31T19:03:55.536Z,15.59
2022-07-31T19:06:28.457Z,15.57
2022-07-31T19:09:01.831Z,15.60
2022-07-31T19:11:34.719Z,15.60
2022-07-31T19:14:07.305Z,15.59
2022-07-31T19:16:40.057Z,15.55
2022-07-31T19:19:14.698Z,15.54
2022-07-31T19:21:53.139Z,15.53
2022-07-31T19:24:26.100Z,15.53
2022-07-31T19:26:59.457Z,15.48
2022-07-31T19:29:34.425Z,15.51
2022-07-31T19:32:07.898Z,15.47
2022-07-31T19:34:42.068Z,15.46
2022-07-31T19:37:22.096Z,15.45
2022-07-31T19:39:54.777Z,15.43
2022-07-31T19:42:27.655Z,15.38
2022-07-31T19:45:00.239Z,15.41
2022-07-31T19:47:32.856Z,15.44
2022-07-31T19:50:05.783Z,15.41
2022-07-31T19:52:38.415Z,15.43
2022-07-31T19:55:15.339Z,15.42
2022-07-31T19:57:48.535Z,15.43
2022-07-31T20:00:26.938Z,15.44
2022-07-31T20:03:00.828Z,15.45
2022-07-31T20:05:34.416Z,15.46
2022-07-31T20:08:05.424Z,15.45
2022-07-31T20:10:38.415Z,15.43
2022-07-31T20:13:14.221Z,15.46
2022-07-31T20:15:52.039Z,15.47
2022-07-31T20:18:29.087Z,15.46
2022-07-31T20:21:07.558Z,15.49
2022-07-31T20:23:41.935Z,15.52
2022-07-31T20:26:16.417Z,15.54
2022-07-31T20:28:53.015Z,15.55
2022-07-31T20:31:25.619Z,15.54
2022-07-31T20:33:59.259Z,15.57
2022-07-31T20:36:32.615Z,15.58
2022-07-31T20:39:05.541Z,15.61
2022-07-31T20:41:37.939Z,15.62
2022-07-31T20:44:10.694Z,15.62
2022-07-31T20:46:43.538Z,15.62
2022-07-31T20:49:19.476Z,15.66
2022-07-31T20:52:11.815Z,15.67
2022-07-31T20:54:44.657Z,15.69
2022-07-31T20:57:17.784Z,15.70
2022-07-31T20:59:50.416Z,15.71
2022-07-31T21:02:23.017Z,15.71
2022-07-31T21:04:55.697Z,15.68
2022-07-31T21:07:29.144Z,15.68
2022-07-31T21:09:59.974Z,15.67
2022-07-31T21:12:32.500Z,15.63
2022-07-31T21:15:06.057Z,15.66
2022-07-31T21:17:59.219Z,15.65
2022-07-31T21:20:52.302Z,15.68
2022-07-31T21:23:24.948Z,15.69
2022-07-31T21:25:59.895Z,15.68
2022-07-31T21:28:32.974Z,15.68
2022-07-31T21:31:06.695Z,15.68
2022-07-31T21:33:39.903Z,15.65
2022-07-31T21:36:16.109Z,15.65
2022-07-31T21:38:50.861Z,15.64
2022-07-31T21:41:25.977Z,15.67
2022-07-31T21:44:00.018Z,15.67
2022-07-31T21:46:40.855Z,15.63
2022-07-31T21:49:20.725Z,15.60
2022-07-31T21:51:54.857Z,15.62
2022-07-31T21:54:27.297Z,15.61
2022-07-31T21:57:00.096Z,15.62
2022-07-31T21:59:32.537Z,15.62
2022-07-31T22:02:06.135Z,15.58
2022-07-31T22:05:00.378Z,15.57
2022-07-31T22:07:42.655Z,15.58
2022-07-31T22:10:18.018Z,15.56
2022-07-31T22:12:51.458Z,15.55
2022-07-31T22:15:24.056Z,15.52
2022-07-31T22:17:57.138Z,15.55
2022-07-31T22:20:30.418Z,15.55
2022-07-31T22:23:07.979Z,15.54
2022-07-31T22:25:40.978Z,15.57
2022-07-31T22:28:14.619Z,15.59
2022-07-31T22:30:48.021Z,15.58
2022-07-31T22:33:20.579Z,15.60
2022-07-31T22:35:59.927Z,15.61
2022-07-31T22:38:33.458Z,15.59
2022-07-31T22:41:06.098Z,15.58
2022-07-31T22:44:11.138Z,15.54
2022-07-31T22:46:32.714Z,15.56
2022-07-31T22:49:07.585Z,15.55
2022-07-31T22:51:44.817Z,15.58
2022-07-31T22:54:20.738Z,15.58
2022-07-31T22:56:53.507Z,15.59
2022-07-31T22:59:26.295Z,15.61
2022-07-31T23:01:59.747Z,15.62
2022-07-31T23:04:37.178Z,15.63
2022-07-31T23:07:09.820Z,15.62
2022-07-31T23:09:42.659Z,15.60
2022-07-31T23:12:15.056Z,15.62
2022-07-31T23:14:47.746Z,15.63
2022-07-31T23:17:23.251Z,15.62
2022-07-31T23:19:57.186Z,15.62
2022-07-31T23:22:30.838Z,15.63
2022-07-31T23:25:06.899Z,15.56
2022-07-31T23:27:40.378Z,15.60
2022-07-31T23:30:14.740Z,15.60
2022-07-31T23:32:47.146Z,15.61
2022-07-31T23:35:19.634Z,15.62
2022-07-31T23:37:52.263Z,15.64
2022-07-31T23:40:25.777Z,15.66
2022-07-31T23:42:56.466Z,15.65
2022-07-31T23:45:31.495Z,15.59
2022-07-31T23:48:04.617Z,15.63
2022-07-31T23:50:37.736Z,15.64
2022-07-31T23:53:10.459Z,15.66
2022-07-31T23:55:45.896Z,15.65
2022-07-31T23:58:19.219Z,15.60
